sensor_id;sensor_type;location;lat;lon;timestamp;P1;durP1;ratioP1;P2;durP2;ratioP2
41629;SDS011;27322;49.488;8.480;2023-05-07T00:00:59;3.67;;;1.45;;
41629;SDS011;27322;49.488;8.480;2023-05-07T00:03:25;3.50;;;1.55;;
41629;SDS011;27322;49.488;8.480;2023-05-07T00:05:51;7.90;;;1.67;;
41629;SDS011;27322;49.488;8.480;2023-05-07T00:08:17;4.45;;;1.88;;
41629;SDS011;27322;49.488;8.480;2023-05-07T00:10:43;3.55;;;1.40;;
41629;SDS011;27322;49.488;8.480;2023-05-07T00:13:09;3.65;;;1.73;;
41629;SDS011;27322;49.488;8.480;2023-05-07T00:15:35;4.18;;;1.90;;
41629;SDS011;27322;49.488;8.480;2023-05-07T00:18:00;4.00;;;1.48;;
41629;SDS011;27322;49.488;8.480;2023-05-07T00:20:26;4.28;;;1.50;;
41629;SDS011;27322;49.488;8.480;2023-05-07T00:22:51;3.05;;;1.40;;
41629;SDS011;27322;49.488;8.480;2023-05-07T00:25:17;4.03;;;1.42;;
41629;SDS011;27322;49.488;8.480;2023-05-07T00:27:44;5.40;;;2.20;;
41629;SDS011;27322;49.488;8.480;2023-05-07T00:30:10;4.03;;;1.42;;
41629;SDS011;27322;49.488;8.480;2023-05-07T00:32:36;3.50;;;1.60;;
41629;SDS011;27322;49.488;8.480;2023-05-07T00:35:02;4.43;;;1.77;;
41629;SDS011;27322;49.488;8.480;2023-05-07T00:37:29;3.03;;;1.60;;
41629;SDS011;27322;49.488;8.480;2023-05-07T00:39:55;6.57;;;1.90;;
41629;SDS011;27322;49.488;8.480;2023-05-07T00:42:20;4.15;;;1.70;;
41629;SDS011;27322;49.488;8.480;2023-05-07T00:44:46;2.67;;;1.45;;
41629;SDS011;27322;49.488;8.480;2023-05-07T00:47:12;5.00;;;1.80;;
41629;SDS011;27322;49.488;8.480;2023-05-07T00:49:39;4.00;;;1.80;;
41629;SDS011;27322;49.488;8.480;2023-05-07T00:52:14;4.03;;;1.88;;
41629;SDS011;27322;49.488;8.480;2023-05-07T00:54:42;4.45;;;1.90;;
41629;SDS011;27322;49.488;8.480;2023-05-07T00:57:09;4.05;;;1.45;;
41629;SDS011;27322;49.488;8.480;2023-05-07T00:59:36;3.25;;;1.60;;
41629;SDS011;27322;49.488;8.480;2023-05-07T01:02:01;3.00;;;1.63;;
41629;SDS011;27322;49.488;8.480;2023-05-07T01:04:27;3.65;;;1.83;;
41629;SDS011;27322;49.488;8.480;2023-05-07T01:06:53;4.03;;;1.77;;
41629;SDS011;27322;49.488;8.480;2023-05-07T01:09:21;3.40;;;1.80;;
41629;SDS011;27322;49.488;8.480;2023-05-07T01:11:47;4.45;;;1.85;;
41629;SDS011;27322;49.488;8.480;2023-05-07T01:14:14;5.57;;;2.13;;
41629;SDS011;27322;49.488;8.480;2023-05-07T01:16:40;2.97;;;1.67;;
41629;SDS011;27322;49.488;8.480;2023-05-07T01:19:06;7.00;;;2.08;;
41629;SDS011;27322;49.488;8.480;2023-05-07T01:21:33;3.58;;;2.03;;
41629;SDS011;27322;49.488;8.480;2023-05-07T01:24:02;3.53;;;2.00;;
41629;SDS011;27322;49.488;8.480;2023-05-07T01:26:27;3.58;;;1.80;;
41629;SDS011;27322;49.488;8.480;2023-05-07T01:28:53;4.43;;;2.10;;
41629;SDS011;27322;49.488;8.480;2023-05-07T01:31:18;3.38;;;2.00;;
41629;SDS011;27322;49.488;8.480;2023-05-07T01:33:44;3.88;;;1.83;;
41629;SDS011;27322;49.488;8.480;2023-05-07T01:36:12;4.10;;;2.10;;
41629;SDS011;27322;49.488;8.480;2023-05-07T01:38:39;5.18;;;2.00;;
41629;SDS011;27322;49.488;8.480;2023-05-07T01:41:06;3.15;;;1.80;;
41629;SDS011;27322;49.488;8.480;2023-05-07T01:43:32;5.43;;;1.90;;
41629;SDS011;27322;49.488;8.480;2023-05-07T01:45:58;4.13;;;2.13;;
41629;SDS011;27322;49.488;8.480;2023-05-07T01:48:24;4.03;;;1.80;;
41629;SDS011;27322;49.488;8.480;2023-05-07T01:50:51;4.00;;;2.13;;
41629;SDS011;27322;49.488;8.480;2023-05-07T01:53:17;3.78;;;1.80;;
41629;SDS011;27322;49.488;8.480;2023-05-07T01:55:42;4.13;;;1.88;;
41629;SDS011;27322;49.488;8.480;2023-05-07T01:58:08;5.15;;;2.00;;
41629;SDS011;27322;49.488;8.480;2023-05-07T02:00:33;3.15;;;1.70;;
41629;SDS011;27322;49.488;8.480;2023-05-07T02:02:59;3.47;;;1.60;;
41629;SDS011;27322;49.488;8.480;2023-05-07T02:05:24;3.92;;;1.90;;
41629;SDS011;27322;49.488;8.480;2023-05-07T02:07:50;3.28;;;1.80;;
41629;SDS011;27322;49.488;8.480;2023-05-07T02:10:16;3.97;;;1.60;;
41629;SDS011;27322;49.488;8.480;2023-05-07T02:12:41;2.80;;;1.60;;
41629;SDS011;27322;49.488;8.480;2023-05-07T02:15:07;3.67;;;1.70;;
41629;SDS011;27322;49.488;8.480;2023-05-07T02:17:33;3.75;;;1.98;;
41629;SDS011;27322;49.488;8.480;2023-05-07T02:19:59;4.35;;;1.90;;
41629;SDS011;27322;49.488;8.480;2023-05-07T02:22:25;4.43;;;1.90;;
41629;SDS011;27322;49.488;8.480;2023-05-07T02:24:50;4.90;;;1.90;;
41629;SDS011;27322;49.488;8.480;2023-05-07T02:27:16;4.43;;;2.15;;
41629;SDS011;27322;49.488;8.480;2023-05-07T02:29:41;4.80;;;1.95;;
41629;SDS011;27322;49.488;8.480;2023-05-07T02:32:07;4.07;;;1.90;;
41629;SDS011;27322;49.488;8.480;2023-05-07T02:34:33;4.28;;;1.90;;
41629;SDS011;27322;49.488;8.480;2023-05-07T02:36:58;5.28;;;2.10;;
41629;SDS011;27322;49.488;8.480;2023-05-07T02:39:24;4.00;;;2.03;;
41629;SDS011;27322;49.488;8.480;2023-05-07T02:41:49;5.32;;;2.40;;
41629;SDS011;27322;49.488;8.480;2023-05-07T02:44:15;5.53;;;2.40;;
41629;SDS011;27322;49.488;8.480;2023-05-07T02:46:40;3.92;;;2.28;;
41629;SDS011;27322;49.488;8.480;2023-05-07T02:49:06;4.28;;;2.35;;
41629;SDS011;27322;49.488;8.480;2023-05-07T02:51:31;4.30;;;2.33;;
41629;SDS011;27322;49.488;8.480;2023-05-07T02:53:57;4.88;;;2.65;;
41629;SDS011;27322;49.488;8.480;2023-05-07T02:56:25;4.72;;;2.33;;
41629;SDS011;27322;49.488;8.480;2023-05-07T02:58:51;4.78;;;2.70;;
41629;SDS011;27322;49.488;8.480;2023-05-07T03:01:16;6.82;;;2.65;;
41629;SDS011;27322;49.488;8.480;2023-05-07T03:03:42;5.47;;;2.80;;
41629;SDS011;27322;49.488;8.480;2023-05-07T03:06:07;5.07;;;2.70;;
41629;SDS011;27322;49.488;8.480;2023-05-07T03:08:33;4.60;;;2.78;;
41629;SDS011;27322;49.488;8.480;2023-05-07T03:10:59;4.90;;;2.90;;
41629;SDS011;27322;49.488;8.480;2023-05-07T03:13:24;4.50;;;2.65;;
41629;SDS011;27322;49.488;8.480;2023-05-07T03:15:50;5.93;;;2.85;;
41629;SDS011;27322;49.488;8.480;2023-05-07T03:18:15;6.88;;;3.20;;
41629;SDS011;27322;49.488;8.480;2023-05-07T03:20:41;5.63;;;2.97;;
41629;SDS011;27322;49.488;8.480;2023-05-07T03:23:07;4.38;;;2.60;;
41629;SDS011;27322;49.488;8.480;2023-05-07T03:25:32;4.60;;;2.92;;
41629;SDS011;27322;49.488;8.480;2023-05-07T03:27:58;6.00;;;2.47;;
41629;SDS011;27322;49.488;8.480;2023-05-07T03:30:24;5.03;;;2.83;;
41629;SDS011;27322;49.488;8.480;2023-05-07T03:32:50;5.40;;;2.80;;
41629;SDS011;27322;49.488;8.480;2023-05-07T03:35:15;4.57;;;2.90;;
41629;SDS011;27322;49.488;8.480;2023-05-07T03:37:41;5.20;;;2.78;;
41629;SDS011;27322;49.488;8.480;2023-05-07T03:40:06;4.97;;;2.50;;
41629;SDS011;27322;49.488;8.480;2023-05-07T03:42:34;4.72;;;2.70;;
41629;SDS011;27322;49.488;8.480;2023-05-07T03:44:59;4.57;;;2.60;;
41629;SDS011;27322;49.488;8.480;2023-05-07T03:47:25;5.50;;;2.60;;
41629;SDS011;27322;49.488;8.480;2023-05-07T03:49:50;5.93;;;2.60;;
41629;SDS011;27322;49.488;8.480;2023-05-07T03:52:17;4.32;;;2.47;;
41629;SDS011;27322;49.488;8.480;2023-05-07T03:54:47;5.25;;;2.83;;
41629;SDS011;27322;49.488;8.480;2023-05-07T03:57:13;5.90;;;2.35;;
41629;SDS011;27322;49.488;8.480;2023-05-07T03:59:38;4.10;;;2.30;;
41629;SDS011;27322;49.488;8.480;2023-05-07T04:02:04;4.68;;;2.22;;
41629;SDS011;27322;49.488;8.480;2023-05-07T04:04:30;5.15;;;2.55;;
41629;SDS011;27322;49.488;8.480;2023-05-07T04:06:57;4.25;;;2.42;;
41629;SDS011;27322;49.488;8.480;2023-05-07T04:09:24;6.05;;;2.75;;
41629;SDS011;27322;49.488;8.480;2023-05-07T04:11:50;4.78;;;2.60;;
41629;SDS011;27322;49.488;8.480;2023-05-07T04:14:16;6.05;;;2.60;;
41629;SDS011;27322;49.488;8.480;2023-05-07T04:16:41;4.30;;;2.08;;
41629;SDS011;27322;49.488;8.480;2023-05-07T04:19:07;6.35;;;2.40;;
41629;SDS011;27322;49.488;8.480;2023-05-07T04:21:32;5.20;;;2.53;;
41629;SDS011;27322;49.488;8.480;2023-05-07T04:23:58;4.38;;;2.30;;
41629;SDS011;27322;49.488;8.480;2023-05-07T04:26:23;5.22;;;2.78;;
41629;SDS011;27322;49.488;8.480;2023-05-07T04:28:49;4.88;;;2.70;;
41629;SDS011;27322;49.488;8.480;2023-05-07T04:31:15;6.75;;;2.65;;
41629;SDS011;27322;49.488;8.480;2023-05-07T04:33:41;4.95;;;2.45;;
41629;SDS011;27322;49.488;8.480;2023-05-07T04:36:06;5.93;;;2.53;;
41629;SDS011;27322;49.488;8.480;2023-05-07T04:38:32;4.53;;;2.28;;
41629;SDS011;27322;49.488;8.480;2023-05-07T04:41:02;6.22;;;2.80;;
41629;SDS011;27322;49.488;8.480;2023-05-07T04:43:29;4.35;;;2.63;;
41629;SDS011;27322;49.488;8.480;2023-05-07T04:45:54;5.55;;;2.38;;
41629;SDS011;27322;49.488;8.480;2023-05-07T04:48:20;5.28;;;2.53;;
41629;SDS011;27322;49.488;8.480;2023-05-07T04:50:49;6.28;;;3.08;;
41629;SDS011;27322;49.488;8.480;2023-05-07T04:53:15;6.05;;;2.80;;
41629;SDS011;27322;49.488;8.480;2023-05-07T04:55:41;5.45;;;2.63;;
41629;SDS011;27322;49.488;8.480;2023-05-07T04:58:07;5.30;;;2.80;;
41629;SDS011;27322;49.488;8.480;2023-05-07T05:00:32;4.43;;;2.70;;
41629;SDS011;27322;49.488;8.480;2023-05-07T05:02:58;5.35;;;2.72;;
41629;SDS011;27322;49.488;8.480;2023-05-07T05:05:24;5.25;;;3.00;;
41629;SDS011;27322;49.488;8.480;2023-05-07T05:07:50;4.15;;;2.58;;
41629;SDS011;27322;49.488;8.480;2023-05-07T05:10:16;4.57;;;2.60;;
41629;SDS011;27322;49.488;8.480;2023-05-07T05:12:42;4.63;;;2.30;;
41629;SDS011;27322;49.488;8.480;2023-05-07T05:15:08;5.55;;;2.78;;
41629;SDS011;27322;49.488;8.480;2023-05-07T05:17:35;4.32;;;2.70;;
41629;SDS011;27322;49.488;8.480;2023-05-07T05:20:01;6.07;;;2.72;;
41629;SDS011;27322;49.488;8.480;2023-05-07T05:22:27;4.57;;;2.33;;
41629;SDS011;27322;49.488;8.480;2023-05-07T05:24:54;5.85;;;2.47;;
41629;SDS011;27322;49.488;8.480;2023-05-07T05:27:20;5.40;;;2.40;;
41629;SDS011;27322;49.488;8.480;2023-05-07T05:29:45;5.88;;;2.55;;
41629;SDS011;27322;49.488;8.480;2023-05-07T05:32:11;5.35;;;2.55;;
41629;SDS011;27322;49.488;8.480;2023-05-07T05:34:36;5.20;;;2.45;;
41629;SDS011;27322;49.488;8.480;2023-05-07T05:37:02;7.15;;;2.40;;
41629;SDS011;27322;49.488;8.480;2023-05-07T05:39:28;5.45;;;3.00;;
41629;SDS011;27322;49.488;8.480;2023-05-07T05:41:53;4.95;;;2.90;;
41629;SDS011;27322;49.488;8.480;2023-05-07T05:44:19;5.57;;;2.97;;
41629;SDS011;27322;49.488;8.480;2023-05-07T05:46:44;8.13;;;3.33;;
41629;SDS011;27322;49.488;8.480;2023-05-07T05:49:10;7.35;;;3.38;;
41629;SDS011;27322;49.488;8.480;2023-05-07T05:51:36;6.38;;;3.45;;
41629;SDS011;27322;49.488;8.480;2023-05-07T05:54:01;7.55;;;3.60;;
41629;SDS011;27322;49.488;8.480;2023-05-07T05:56:27;6.07;;;3.22;;
41629;SDS011;27322;49.488;8.480;2023-05-07T05:58:52;5.40;;;3.42;;
41629;SDS011;27322;49.488;8.480;2023-05-07T06:01:18;5.78;;;3.05;;
41629;SDS011;27322;49.488;8.480;2023-05-07T06:03:44;7.07;;;3.20;;
41629;SDS011;27322;49.488;8.480;2023-05-07T06:06:10;4.78;;;2.92;;
41629;SDS011;27322;49.488;8.480;2023-05-07T06:08:35;5.75;;;2.95;;
41629;SDS011;27322;49.488;8.480;2023-05-07T06:11:01;6.95;;;3.75;;
41629;SDS011;27322;49.488;8.480;2023-05-07T06:13:28;8.18;;;5.20;;
41629;SDS011;27322;49.488;8.480;2023-05-07T06:15:53;17.85;;;11.77;;
41629;SDS011;27322;49.488;8.480;2023-05-07T06:18:19;18.00;;;9.73;;
41629;SDS011;27322;49.488;8.480;2023-05-07T06:20:44;13.32;;;8.35;;
41629;SDS011;27322;49.488;8.480;2023-05-07T06:23:10;12.20;;;7.78;;
41629;SDS011;27322;49.488;8.480;2023-05-07T06:25:35;10.82;;;6.93;;
41629;SDS011;27322;49.488;8.480;2023-05-07T06:28:01;8.35;;;5.72;;
41629;SDS011;27322;49.488;8.480;2023-05-07T06:30:26;6.80;;;4.43;;
41629;SDS011;27322;49.488;8.480;2023-05-07T06:32:52;6.20;;;3.65;;
41629;SDS011;27322;49.488;8.480;2023-05-07T06:35:17;5.88;;;3.40;;
41629;SDS011;27322;49.488;8.480;2023-05-07T06:37:44;5.72;;;3.20;;
41629;SDS011;27322;49.488;8.480;2023-05-07T06:40:10;4.85;;;2.85;;
41629;SDS011;27322;49.488;8.480;2023-05-07T06:42:36;5.80;;;2.80;;
41629;SDS011;27322;49.488;8.480;2023-05-07T06:45:02;4.50;;;2.45;;
41629;SDS011;27322;49.488;8.480;2023-05-07T06:47:28;4.75;;;2.50;;
41629;SDS011;27322;49.488;8.480;2023-05-07T06:49:53;4.47;;;2.28;;
41629;SDS011;27322;49.488;8.480;2023-05-07T06:52:19;7.82;;;2.97;;
41629;SDS011;27322;49.488;8.480;2023-05-07T06:54:45;6.80;;;2.80;;
41629;SDS011;27322;49.488;8.480;2023-05-07T06:57:10;4.70;;;2.75;;
41629;SDS011;27322;49.488;8.480;2023-05-07T06:59:39;5.68;;;3.05;;
41629;SDS011;27322;49.488;8.480;2023-05-07T07:02:05;4.53;;;2.45;;
41629;SDS011;27322;49.488;8.480;2023-05-07T07:04:31;3.70;;;2.45;;
41629;SDS011;27322;49.488;8.480;2023-05-07T07:06:56;4.82;;;2.65;;
41629;SDS011;27322;49.488;8.480;2023-05-07T07:09:22;4.72;;;2.40;;
41629;SDS011;27322;49.488;8.480;2023-05-07T07:11:47;4.32;;;2.40;;
41629;SDS011;27322;49.488;8.480;2023-05-07T07:14:13;3.92;;;2.38;;
41629;SDS011;27322;49.488;8.480;2023-05-07T07:16:39;4.28;;;2.53;;
41629;SDS011;27322;49.488;8.480;2023-05-07T07:19:05;5.55;;;2.60;;
41629;SDS011;27322;49.488;8.480;2023-05-07T07:21:30;3.83;;;2.00;;
41629;SDS011;27322;49.488;8.480;2023-05-07T07:23:56;3.58;;;1.85;;
41629;SDS011;27322;49.488;8.480;2023-05-07T07:26:22;5.40;;;2.30;;
41629;SDS011;27322;49.488;8.480;2023-05-07T07:28:48;4.22;;;2.28;;
41629;SDS011;27322;49.488;8.480;2023-05-07T07:31:13;4.03;;;2.10;;
41629;SDS011;27322;49.488;8.480;2023-05-07T07:33:39;4.40;;;1.80;;
41629;SDS011;27322;49.488;8.480;2023-05-07T07:36:05;3.67;;;2.17;;
41629;SDS011;27322;49.488;8.480;2023-05-07T07:38:31;3.28;;;2.13;;
41629;SDS011;27322;49.488;8.480;2023-05-07T07:40:57;8.43;;;2.45;;
41629;SDS011;27322;49.488;8.480;2023-05-07T07:43:23;4.18;;;1.90;;
41629;SDS011;27322;49.488;8.480;2023-05-07T07:45:48;4.95;;;2.10;;
41629;SDS011;27322;49.488;8.480;2023-05-07T07:48:14;5.28;;;2.85;;
41629;SDS011;27322;49.488;8.480;2023-05-07T07:50:40;5.57;;;3.03;;
41629;SDS011;27322;49.488;8.480;2023-05-07T07:53:05;4.70;;;2.55;;
41629;SDS011;27322;49.488;8.480;2023-05-07T07:55:31;4.45;;;1.98;;
41629;SDS011;27322;49.488;8.480;2023-05-07T07:57:57;4.20;;;1.90;;
41629;SDS011;27322;49.488;8.480;2023-05-07T08:00:22;5.28;;;1.92;;
41629;SDS011;27322;49.488;8.480;2023-05-07T08:02:48;2.65;;;1.73;;
41629;SDS011;27322;49.488;8.480;2023-05-07T08:05:14;4.85;;;2.00;;
41629;SDS011;27322;49.488;8.480;2023-05-07T08:07:40;3.55;;;2.10;;
41629;SDS011;27322;49.488;8.480;2023-05-07T08:10:06;3.70;;;2.15;;
41629;SDS011;27322;49.488;8.480;2023-05-07T08:12:31;3.13;;;1.90;;
41629;SDS011;27322;49.488;8.480;2023-05-07T08:14:57;4.50;;;2.00;;
41629;SDS011;27322;49.488;8.480;2023-05-07T08:17:23;4.15;;;1.98;;
41629;SDS011;27322;49.488;8.480;2023-05-07T08:19:48;6.32;;;2.10;;
41629;SDS011;27322;49.488;8.480;2023-05-07T08:22:14;4.60;;;2.17;;
41629;SDS011;27322;49.488;8.480;2023-05-07T08:24:40;3.97;;;2.33;;
41629;SDS011;27322;49.488;8.480;2023-05-07T08:27:06;3.70;;;1.95;;
41629;SDS011;27322;49.488;8.480;2023-05-07T08:29:31;3.80;;;1.80;;
41629;SDS011;27322;49.488;8.480;2023-05-07T08:31:57;6.38;;;2.60;;
41629;SDS011;27322;49.488;8.480;2023-05-07T08:34:22;4.13;;;1.92;;
41629;SDS011;27322;49.488;8.480;2023-05-07T08:36:48;4.50;;;2.10;;
41629;SDS011;27322;49.488;8.480;2023-05-07T08:39:17;4.43;;;2.40;;
41629;SDS011;27322;49.488;8.480;2023-05-07T08:41:45;4.85;;;1.85;;
41629;SDS011;27322;49.488;8.480;2023-05-07T08:44:12;3.95;;;2.20;;
41629;SDS011;27322;49.488;8.480;2023-05-07T08:46:41;3.53;;;1.85;;
41629;SDS011;27322;49.488;8.480;2023-05-07T08:49:11;4.25;;;1.75;;
41629;SDS011;27322;49.488;8.480;2023-05-07T08:51:37;3.63;;;2.10;;
41629;SDS011;27322;49.488;8.480;2023-05-07T08:54:02;3.15;;;1.65;;
41629;SDS011;27322;49.488;8.480;2023-05-07T08:56:29;3.50;;;1.60;;
41629;SDS011;27322;49.488;8.480;2023-05-07T08:58:55;3.53;;;1.83;;
41629;SDS011;27322;49.488;8.480;2023-05-07T09:01:23;3.55;;;1.73;;
41629;SDS011;27322;49.488;8.480;2023-05-07T09:03:50;3.97;;;1.90;;
41629;SDS011;27322;49.488;8.480;2023-05-07T09:06:18;3.92;;;1.75;;
41629;SDS011;27322;49.488;8.480;2023-05-07T09:08:53;4.65;;;2.00;;
41629;SDS011;27322;49.488;8.480;2023-05-07T09:11:20;4.65;;;1.88;;
41629;SDS011;27322;49.488;8.480;2023-05-07T09:13:51;3.90;;;2.03;;
41629;SDS011;27322;49.488;8.480;2023-05-07T09:16:23;4.57;;;1.70;;
41629;SDS011;27322;49.488;8.480;2023-05-07T09:18:53;3.30;;;1.50;;
41629;SDS011;27322;49.488;8.480;2023-05-07T09:21:20;2.70;;;1.40;;
41629;SDS011;27322;49.488;8.480;2023-05-07T09:23:48;3.47;;;1.30;;
41629;SDS011;27322;49.488;8.480;2023-05-07T09:26:15;3.70;;;1.40;;
41629;SDS011;27322;49.488;8.480;2023-05-07T09:28:41;5.40;;;1.80;;
41629;SDS011;27322;49.488;8.480;2023-05-07T09:31:07;3.45;;;1.45;;
41629;SDS011;27322;49.488;8.480;2023-05-07T09:33:34;2.45;;;1.20;;
41629;SDS011;27322;49.488;8.480;2023-05-07T09:36:03;3.83;;;1.60;;
41629;SDS011;27322;49.488;8.480;2023-05-07T09:38:30;3.38;;;1.63;;
41629;SDS011;27322;49.488;8.480;2023-05-07T09:43:36;2.75;;;1.42;;
41629;SDS011;27322;49.488;8.480;2023-05-07T09:46:03;3.97;;;2.00;;
41629;SDS011;27322;49.488;8.480;2023-05-07T09:48:35;3.22;;;1.40;;
41629;SDS011;27322;49.488;8.480;2023-05-07T09:51:03;4.35;;;1.85;;
41629;SDS011;27322;49.488;8.480;2023-05-07T09:53:36;3.17;;;1.60;;
41629;SDS011;27322;49.488;8.480;2023-05-07T09:56:04;3.10;;;1.60;;
41629;SDS011;27322;49.488;8.480;2023-05-07T09:58:30;4.82;;;1.27;;
41629;SDS011;27322;49.488;8.480;2023-05-07T10:00:58;3.45;;;1.50;;
41629;SDS011;27322;49.488;8.480;2023-05-07T10:03:24;3.60;;;1.27;;
41629;SDS011;27322;49.488;8.480;2023-05-07T10:05:52;2.72;;;1.30;;
41629;SDS011;27322;49.488;8.480;2023-05-07T10:08:19;4.63;;;1.40;;
41629;SDS011;27322;49.488;8.480;2023-05-07T10:10:44;2.95;;;1.42;;
41629;SDS011;27322;49.488;8.480;2023-05-07T10:13:11;2.50;;;1.23;;
41629;SDS011;27322;49.488;8.480;2023-05-07T10:15:37;2.47;;;1.20;;
41629;SDS011;27322;49.488;8.480;2023-05-07T10:18:03;3.03;;;1.38;;
41629;SDS011;27322;49.488;8.480;2023-05-07T10:20:31;2.95;;;1.40;;
41629;SDS011;27322;49.488;8.480;2023-05-07T10:22:58;3.33;;;1.35;;
41629;SDS011;27322;49.488;8.480;2023-05-07T10:25:25;2.08;;;1.10;;
41629;SDS011;27322;49.488;8.480;2023-05-07T10:27:55;2.10;;;1.08;;
41629;SDS011;27322;49.488;8.480;2023-05-07T10:33:05;2.47;;;1.20;;
41629;SDS011;27322;49.488;8.480;2023-05-07T10:35:39;2.67;;;1.20;;
41629;SDS011;27322;49.488;8.480;2023-05-07T10:38:07;2.58;;;1.02;;
41629;SDS011;27322;49.488;8.480;2023-05-07T10:40:33;3.13;;;1.15;;
41629;SDS011;27322;49.488;8.480;2023-05-07T10:43:03;3.47;;;1.20;;
41629;SDS011;27322;49.488;8.480;2023-05-07T10:45:30;5.22;;;1.10;;
41629;SDS011;27322;49.488;8.480;2023-05-07T10:50:45;2.45;;;1.00;;
41629;SDS011;27322;49.488;8.480;2023-05-07T10:55:43;2.38;;;1.30;;
41629;SDS011;27322;49.488;8.480;2023-05-07T11:00:47;2.50;;;1.05;;
41629;SDS011;27322;49.488;8.480;2023-05-07T11:03:13;3.10;;;1.27;;
41629;SDS011;27322;49.488;8.480;2023-05-07T11:05:40;2.35;;;1.10;;
41629;SDS011;27322;49.488;8.480;2023-05-07T11:08:06;3.10;;;1.05;;
41629;SDS011;27322;49.488;8.480;2023-05-07T11:16:18;3.45;;;1.30;;
41629;SDS011;27322;49.488;8.480;2023-05-07T11:18:55;3.70;;;1.10;;
41629;SDS011;27322;49.488;8.480;2023-05-07T11:21:34;1.77;;;1.08;;
41629;SDS011;27322;49.488;8.480;2023-05-07T11:24:00;4.75;;;1.10;;
41629;SDS011;27322;49.488;8.480;2023-05-07T11:26:27;3.20;;;1.20;;
41629;SDS011;27322;49.488;8.480;2023-05-07T11:28:55;1.88;;;1.00;;
41629;SDS011;27322;49.488;8.480;2023-05-07T11:31:22;2.58;;;1.20;;
41629;SDS011;27322;49.488;8.480;2023-05-07T11:33:53;2.30;;;1.08;;
41629;SDS011;27322;49.488;8.480;2023-05-07T11:36:21;2.85;;;1.15;;
41629;SDS011;27322;49.488;8.480;2023-05-07T11:38:47;2.78;;;1.20;;
41629;SDS011;27322;49.488;8.480;2023-05-07T11:41:13;1.95;;;1.08;;
41629;SDS011;27322;49.488;8.480;2023-05-07T11:43:49;1.85;;;0.90;;
41629;SDS011;27322;49.488;8.480;2023-05-07T11:46:20;2.25;;;1.10;;
41629;SDS011;27322;49.488;8.480;2023-05-07T11:48:45;2.38;;;1.00;;
41629;SDS011;27322;49.488;8.480;2023-05-07T11:51:11;2.55;;;1.10;;
41629;SDS011;27322;49.488;8.480;2023-05-07T11:53:39;2.03;;;1.15;;
41629;SDS011;27322;49.488;8.480;2023-05-07T11:56:06;2.70;;;1.05;;
41629;SDS011;27322;49.488;8.480;2023-05-07T11:58:36;2.92;;;1.10;;
41629;SDS011;27322;49.488;8.480;2023-05-07T12:01:02;1.90;;;0.85;;
41629;SDS011;27322;49.488;8.480;2023-05-07T12:03:28;3.85;;;1.33;;
41629;SDS011;27322;49.488;8.480;2023-05-07T12:05:54;2.20;;;0.98;;
41629;SDS011;27322;49.488;8.480;2023-05-07T12:08:20;2.85;;;0.95;;
41629;SDS011;27322;49.488;8.480;2023-05-07T12:10:50;1.95;;;1.10;;
41629;SDS011;27322;49.488;8.480;2023-05-07T12:13:23;3.75;;;1.40;;
41629;SDS011;27322;49.488;8.480;2023-05-07T12:15:53;2.65;;;1.27;;
41629;SDS011;27322;49.488;8.480;2023-05-07T12:18:22;3.47;;;1.20;;
41629;SDS011;27322;49.488;8.480;2023-05-07T12:20:48;2.67;;;1.10;;
41629;SDS011;27322;49.488;8.480;2023-05-07T12:23:15;2.42;;;1.10;;
41629;SDS011;27322;49.488;8.480;2023-05-07T12:25:42;2.78;;;1.10;;
41629;SDS011;27322;49.488;8.480;2023-05-07T12:28:15;2.75;;;1.17;;
41629;SDS011;27322;49.488;8.480;2023-05-07T12:30:42;1.60;;;1.10;;
41629;SDS011;27322;49.488;8.480;2023-05-07T12:33:09;2.15;;;1.08;;
41629;SDS011;27322;49.488;8.480;2023-05-07T12:35:36;2.05;;;1.00;;
41629;SDS011;27322;49.488;8.480;2023-05-07T12:38:07;1.83;;;0.90;;
41629;SDS011;27322;49.488;8.480;2023-05-07T12:43:06;3.22;;;1.10;;
41629;SDS011;27322;49.488;8.480;2023-05-07T12:45:36;2.60;;;1.10;;
41629;SDS011;27322;49.488;8.480;2023-05-07T12:48:05;2.83;;;1.23;;
41629;SDS011;27322;49.488;8.480;2023-05-07T12:50:31;2.38;;;1.00;;
41629;SDS011;27322;49.488;8.480;2023-05-07T12:52:58;3.53;;;1.10;;
41629;SDS011;27322;49.488;8.480;2023-05-07T12:55:24;5.22;;;1.10;;
41629;SDS011;27322;49.488;8.480;2023-05-07T12:57:51;2.67;;;1.17;;
41629;SDS011;27322;49.488;8.480;2023-05-07T13:00:17;2.42;;;1.13;;
41629;SDS011;27322;49.488;8.480;2023-05-07T13:02:58;3.40;;;1.10;;
41629;SDS011;27322;49.488;8.480;2023-05-07T13:05:23;3.15;;;1.10;;
41629;SDS011;27322;49.488;8.480;2023-05-07T13:07:55;1.60;;;1.00;;
41629;SDS011;27322;49.488;8.480;2023-05-07T13:10:22;1.85;;;1.05;;
41629;SDS011;27322;49.488;8.480;2023-05-07T13:12:48;2.63;;;1.10;;
41629;SDS011;27322;49.488;8.480;2023-05-07T13:15:14;2.40;;;1.00;;
41629;SDS011;27322;49.488;8.480;2023-05-07T13:17:40;3.40;;;1.00;;
41629;SDS011;27322;49.488;8.480;2023-05-07T13:20:06;4.57;;;1.10;;
41629;SDS011;27322;49.488;8.480;2023-05-07T13:22:33;2.22;;;1.00;;
41629;SDS011;27322;49.488;8.480;2023-05-07T13:24:58;4.53;;;1.05;;
41629;SDS011;27322;49.488;8.480;2023-05-07T13:27:24;2.55;;;1.13;;
41629;SDS011;27322;49.488;8.480;2023-05-07T13:29:50;2.15;;;1.00;;
41629;SDS011;27322;49.488;8.480;2023-05-07T13:32:16;2.05;;;0.98;;
41629;SDS011;27322;49.488;8.480;2023-05-07T13:34:41;2.03;;;1.00;;
41629;SDS011;27322;49.488;8.480;2023-05-07T13:37:07;2.38;;;1.10;;
41629;SDS011;27322;49.488;8.480;2023-05-07T13:39:33;3.20;;;1.10;;
41629;SDS011;27322;49.488;8.480;2023-05-07T13:41:58;2.38;;;0.93;;
41629;SDS011;27322;49.488;8.480;2023-05-07T13:44:24;1.67;;;0.85;;
41629;SDS011;27322;49.488;8.480;2023-05-07T13:46:50;3.30;;;1.10;;
41629;SDS011;27322;49.488;8.480;2023-05-07T13:49:16;2.03;;;1.00;;
41629;SDS011;27322;49.488;8.480;2023-05-07T13:51:41;2.90;;;1.30;;
41629;SDS011;27322;49.488;8.480;2023-05-07T13:54:07;3.17;;;1.48;;
41629;SDS011;27322;49.488;8.480;2023-05-07T13:56:32;3.63;;;1.50;;
41629;SDS011;27322;49.488;8.480;2023-05-07T13:58:58;2.05;;;1.20;;
41629;SDS011;27322;49.488;8.480;2023-05-07T14:01:24;4.07;;;1.83;;
41629;SDS011;27322;49.488;8.480;2023-05-07T14:03:50;4.22;;;2.03;;
41629;SDS011;27322;49.488;8.480;2023-05-07T14:06:15;3.80;;;1.60;;
41629;SDS011;27322;49.488;8.480;2023-05-07T14:08:41;3.03;;;1.30;;
41629;SDS011;27322;49.488;8.480;2023-05-07T14:11:06;2.60;;;1.23;;
41629;SDS011;27322;49.488;8.480;2023-05-07T14:13:32;3.40;;;1.30;;
41629;SDS011;27322;49.488;8.480;2023-05-07T14:15:59;3.78;;;1.50;;
41629;SDS011;27322;49.488;8.480;2023-05-07T14:18:25;3.88;;;1.33;;
41629;SDS011;27322;49.488;8.480;2023-05-07T14:20:51;3.80;;;1.30;;
41629;SDS011;27322;49.488;8.480;2023-05-07T14:23:17;4.35;;;2.40;;
41629;SDS011;27322;49.488;8.480;2023-05-07T14:25:44;3.60;;;1.83;;
41629;SDS011;27322;49.488;8.480;2023-05-07T14:28:12;5.05;;;2.00;;
41629;SDS011;27322;49.488;8.480;2023-05-07T14:30:38;4.82;;;2.17;;
41629;SDS011;27322;49.488;8.480;2023-05-07T14:33:03;7.07;;;2.33;;
41629;SDS011;27322;49.488;8.480;2023-05-07T14:35:29;6.78;;;2.30;;
41629;SDS011;27322;49.488;8.480;2023-05-07T14:37:54;6.75;;;2.85;;
41629;SDS011;27322;49.488;8.480;2023-05-07T14:40:20;6.45;;;2.60;;
41629;SDS011;27322;49.488;8.480;2023-05-07T14:42:46;7.03;;;2.45;;
41629;SDS011;27322;49.488;8.480;2023-05-07T14:45:11;5.32;;;2.80;;
41629;SDS011;27322;49.488;8.480;2023-05-07T14:47:37;6.80;;;2.90;;
41629;SDS011;27322;49.488;8.480;2023-05-07T14:50:03;7.72;;;3.30;;
41629;SDS011;27322;49.488;8.480;2023-05-07T14:52:32;4.60;;;2.10;;
41629;SDS011;27322;49.488;8.480;2023-05-07T14:54:58;4.38;;;2.10;;
41629;SDS011;27322;49.488;8.480;2023-05-07T14:57:23;6.75;;;3.63;;
41629;SDS011;27322;49.488;8.480;2023-05-07T14:59:49;10.25;;;3.72;;
41629;SDS011;27322;49.488;8.480;2023-05-07T15:02:14;6.30;;;2.70;;
41629;SDS011;27322;49.488;8.480;2023-05-07T15:04:40;6.80;;;2.28;;